sensor_id;sensor_type;location;lat;lon;timestamp;P1;durP1;ratioP1;P2;durP2;ratioP2
7525;SDS011;3804;50.860;6.208;2023-06-22T00:00:01;8.73;;;7.83;;
7525;SDS011;3804;50.860;6.208;2023-06-22T00:02:37;9.73;;;7.37;;
7525;SDS011;3804;50.860;6.208;2023-06-22T00:05:04;9.77;;;8.03;;
7525;SDS011;3804;50.860;6.208;2023-06-22T00:07:31;8.50;;;7.47;;
7525;SDS011;3804;50.860;6.208;2023-06-22T00:09:58;10.13;;;7.73;;
7525;SDS011;3804;50.860;6.208;2023-06-22T00:12:24;8.13;;;7.30;;
7525;SDS011;3804;50.860;6.208;2023-06-22T00:14:52;9.33;;;7.87;;
7525;SDS011;3804;50.860;6.208;2023-06-22T00:17:18;10.47;;;7.73;;
7525;SDS011;3804;50.860;6.208;2023-06-22T00:19:46;9.07;;;8.17;;
7525;SDS011;3804;50.860;6.208;2023-06-22T00:22:13;9.13;;;7.43;;
7525;SDS011;3804;50.860;6.208;2023-06-22T00:24:40;8.80;;;7.87;;
7525;SDS011;3804;50.860;6.208;2023-06-22T00:27:07;8.23;;;7.43;;
7525;SDS011;3804;50.860;6.208;2023-06-22T00:29:34;8.57;;;7.67;;
7525;SDS011;3804;50.860;6.208;2023-06-22T00:32:01;8.97;;;7.27;;
7525;SDS011;3804;50.860;6.208;2023-06-22T00:34:27;8.00;;;7.20;;
7525;SDS011;3804;50.860;6.208;2023-06-22T00:36:54;7.90;;;7.03;;
7525;SDS011;3804;50.860;6.208;2023-06-22T00:39:22;8.27;;;7.47;;
7525;SDS011;3804;50.860;6.208;2023-06-22T00:41:49;7.87;;;6.97;;
7525;SDS011;3804;50.860;6.208;2023-06-22T00:44:16;7.63;;;6.93;;
7525;SDS011;3804;50.860;6.208;2023-06-22T00:46:43;8.13;;;7.33;;
7525;SDS011;3804;50.860;6.208;2023-06-22T00:49:10;7.83;;;6.37;;
7525;SDS011;3804;50.860;6.208;2023-06-22T00:51:37;10.70;;;7.00;;
7525;SDS011;3804;50.860;6.208;2023-06-22T00:54:05;7.07;;;6.40;;
7525;SDS011;3804;50.860;6.208;2023-06-22T00:56:32;7.97;;;6.97;;
7525;SDS011;3804;50.860;6.208;2023-06-22T00:59:01;8.17;;;6.57;;
7525;SDS011;3804;50.860;6.208;2023-06-22T01:01:30;9.40;;;7.40;;
7525;SDS011;3804;50.860;6.208;2023-06-22T01:03:57;7.77;;;6.97;;
7525;SDS011;3804;50.860;6.208;2023-06-22T01:06:33;7.97;;;7.23;;
7525;SDS011;3804;50.860;6.208;2023-06-22T01:09:22;9.70;;;7.00;;
7525;SDS011;3804;50.860;6.208;2023-06-22T01:11:57;7.63;;;6.30;;
7525;SDS011;3804;50.860;6.208;2023-06-22T01:16:56;7.63;;;6.53;;
7525;SDS011;3804;50.860;6.208;2023-06-22T01:22:10;8.90;;;6.90;;
7525;SDS011;3804;50.860;6.208;2023-06-22T01:24:55;7.93;;;7.10;;
7525;SDS011;3804;50.860;6.208;2023-06-22T01:30:13;7.73;;;6.80;;
7525;SDS011;3804;50.860;6.208;2023-06-22T01:32:42;8.67;;;6.87;;
7525;SDS011;3804;50.860;6.208;2023-06-22T01:35:09;8.33;;;6.93;;
7525;SDS011;3804;50.860;6.208;2023-06-22T01:37:37;9.83;;;7.87;;
7525;SDS011;3804;50.860;6.208;2023-06-22T01:40:04;9.07;;;7.27;;
7525;SDS011;3804;50.860;6.208;2023-06-22T01:42:32;8.23;;;6.83;;
7525;SDS011;3804;50.860;6.208;2023-06-22T01:45:00;8.10;;;7.30;;
7525;SDS011;3804;50.860;6.208;2023-06-22T01:47:30;7.60;;;6.80;;
7525;SDS011;3804;50.860;6.208;2023-06-22T01:49:57;7.57;;;6.83;;
7525;SDS011;3804;50.860;6.208;2023-06-22T01:52:24;7.57;;;6.77;;
7525;SDS011;3804;50.860;6.208;2023-06-22T01:54:51;8.70;;;7.90;;
7525;SDS011;3804;50.860;6.208;2023-06-22T01:57:18;8.53;;;7.60;;
7525;SDS011;3804;50.860;6.208;2023-06-22T02:02:21;8.50;;;7.53;;
7525;SDS011;3804;50.860;6.208;2023-06-22T02:04:55;8.17;;;7.30;;
7525;SDS011;3804;50.860;6.208;2023-06-22T02:07:23;9.67;;;7.77;;
7525;SDS011;3804;50.860;6.208;2023-06-22T02:09:50;8.63;;;7.73;;
7525;SDS011;3804;50.860;6.208;2023-06-22T02:12:19;9.13;;;7.50;;
7525;SDS011;3804;50.860;6.208;2023-06-22T02:14:47;9.53;;;7.33;;
7525;SDS011;3804;50.860;6.208;2023-06-22T02:17:14;8.60;;;7.67;;
7525;SDS011;3804;50.860;6.208;2023-06-22T02:19:41;10.83;;;8.17;;
7525;SDS011;3804;50.860;6.208;2023-06-22T02:22:08;10.47;;;7.77;;
7525;SDS011;3804;50.860;6.208;2023-06-22T02:24:36;8.77;;;7.93;;
7525;SDS011;3804;50.860;6.208;2023-06-22T02:27:02;7.87;;;7.03;;
7525;SDS011;3804;50.860;6.208;2023-06-22T02:29:31;9.57;;;7.83;;
7525;SDS011;3804;50.860;6.208;2023-06-22T02:31:58;9.60;;;7.50;;
7525;SDS011;3804;50.860;6.208;2023-06-22T02:34:24;8.50;;;7.63;;
7525;SDS011;3804;50.860;6.208;2023-06-22T02:36:51;9.13;;;7.77;;
7525;SDS011;3804;50.860;6.208;2023-06-22T02:39:22;11.17;;;8.00;;
7525;SDS011;3804;50.860;6.208;2023-06-22T02:41:49;9.33;;;7.93;;
7525;SDS011;3804;50.860;6.208;2023-06-22T02:44:17;9.03;;;8.13;;
7525;SDS011;3804;50.860;6.208;2023-06-22T02:46:44;8.73;;;7.77;;
7525;SDS011;3804;50.860;6.208;2023-06-22T02:49:12;11.07;;;7.83;;
7525;SDS011;3804;50.860;6.208;2023-06-22T02:51:45;10.83;;;8.00;;
7525;SDS011;3804;50.860;6.208;2023-06-22T02:54:14;9.07;;;7.53;;
7525;SDS011;3804;50.860;6.208;2023-06-22T02:56:42;9.30;;;7.50;;
7525;SDS011;3804;50.860;6.208;2023-06-22T02:59:10;9.20;;;8.13;;
7525;SDS011;3804;50.860;6.208;2023-06-22T03:01:38;10.73;;;7.93;;
7525;SDS011;3804;50.860;6.208;2023-06-22T03:04:23;8.90;;;7.73;;
7525;SDS011;3804;50.860;6.208;2023-06-22T03:06:50;9.20;;;8.13;;
7525;SDS011;3804;50.860;6.208;2023-06-22T03:09:18;10.63;;;8.47;;
7525;SDS011;3804;50.860;6.208;2023-06-22T03:11:44;9.93;;;7.93;;
7525;SDS011;3804;50.860;6.208;2023-06-22T03:14:11;12.27;;;8.57;;
7525;SDS011;3804;50.860;6.208;2023-06-22T03:16:38;10.30;;;8.43;;
7525;SDS011;3804;50.860;6.208;2023-06-22T03:19:07;10.80;;;7.73;;
7525;SDS011;3804;50.860;6.208;2023-06-22T03:21:34;12.40;;;8.60;;
7525;SDS011;3804;50.860;6.208;2023-06-22T03:24:00;11.57;;;8.73;;
7525;SDS011;3804;50.860;6.208;2023-06-22T03:26:27;10.70;;;8.17;;
7525;SDS011;3804;50.860;6.208;2023-06-22T03:28:56;10.43;;;8.40;;
7525;SDS011;3804;50.860;6.208;2023-06-22T03:31:23;10.87;;;7.77;;
7525;SDS011;3804;50.860;6.208;2023-06-22T03:33:50;11.27;;;8.27;;
7525;SDS011;3804;50.860;6.208;2023-06-22T03:36:17;11.67;;;8.17;;
7525;SDS011;3804;50.860;6.208;2023-06-22T03:38:47;14.20;;;8.63;;
7525;SDS011;3804;50.860;6.208;2023-06-22T03:41:15;12.07;;;8.60;;
7525;SDS011;3804;50.860;6.208;2023-06-22T03:43:43;10.80;;;8.70;;
7525;SDS011;3804;50.860;6.208;2023-06-22T03:46:09;11.37;;;8.30;;
7525;SDS011;3804;50.860;6.208;2023-06-22T03:48:37;10.80;;;8.23;;
7525;SDS011;3804;50.860;6.208;2023-06-22T03:51:04;10.17;;;7.97;;
7525;SDS011;3804;50.860;6.208;2023-06-22T03:53:31;12.00;;;8.17;;
7525;SDS011;3804;50.860;6.208;2023-06-22T03:55:58;12.80;;;8.60;;
7525;SDS011;3804;50.860;6.208;2023-06-22T03:58:24;9.63;;;8.63;;
7525;SDS011;3804;50.860;6.208;2023-06-22T04:00:51;9.77;;;8.13;;
7525;SDS011;3804;50.860;6.208;2023-06-22T04:03:19;11.67;;;8.47;;
7525;SDS011;3804;50.860;6.208;2023-06-22T04:05:46;12.90;;;8.57;;
7525;SDS011;3804;50.860;6.208;2023-06-22T04:08:13;11.30;;;7.90;;
7525;SDS011;3804;50.860;6.208;2023-06-22T04:10:40;12.10;;;8.63;;
7525;SDS011;3804;50.860;6.208;2023-06-22T04:13:07;11.27;;;8.43;;
7525;SDS011;3804;50.860;6.208;2023-06-22T04:15:34;10.83;;;7.80;;
7525;SDS011;3804;50.860;6.208;2023-06-22T04:18:01;13.70;;;8.37;;
7525;SDS011;3804;50.860;6.208;2023-06-22T04:20:29;9.37;;;8.33;;
7525;SDS011;3804;50.860;6.208;2023-06-22T04:22:56;11.43;;;7.93;;
7525;SDS011;3804;50.860;6.208;2023-06-22T04:25:23;12.00;;;8.13;;
7525;SDS011;3804;50.860;6.208;2023-06-22T04:27:49;11.27;;;7.60;;
7525;SDS011;3804;50.860;6.208;2023-06-22T04:30:17;14.33;;;8.53;;
7525;SDS011;3804;50.860;6.208;2023-06-22T04:32:44;10.60;;;8.60;;
7525;SDS011;3804;50.860;6.208;2023-06-22T04:35:11;12.07;;;8.17;;
7525;SDS011;3804;50.860;6.208;2023-06-22T04:37:38;17.80;;;8.30;;
7525;SDS011;3804;50.860;6.208;2023-06-22T04:40:06;9.07;;;7.60;;
7525;SDS011;3804;50.860;6.208;2023-06-22T04:42:37;12.53;;;8.27;;
7525;SDS011;3804;50.860;6.208;2023-06-22T04:45:04;9.93;;;7.73;;
7525;SDS011;3804;50.860;6.208;2023-06-22T04:47:31;13.43;;;8.57;;
7525;SDS011;3804;50.860;6.208;2023-06-22T04:49:58;11.17;;;8.77;;
7525;SDS011;3804;50.860;6.208;2023-06-22T04:52:25;12.67;;;8.40;;
7525;SDS011;3804;50.860;6.208;2023-06-22T04:54:52;10.23;;;8.47;;
7525;SDS011;3804;50.860;6.208;2023-06-22T04:57:22;12.37;;;8.37;;
7525;SDS011;3804;50.860;6.208;2023-06-22T04:59:59;10.63;;;8.00;;
7525;SDS011;3804;50.860;6.208;2023-06-22T05:02:39;11.93;;;9.07;;
7525;SDS011;3804;50.860;6.208;2023-06-22T05:05:06;9.80;;;8.00;;
7525;SDS011;3804;50.860;6.208;2023-06-22T05:07:34;10.37;;;7.87;;
7525;SDS011;3804;50.860;6.208;2023-06-22T05:10:04;9.97;;;8.27;;
7525;SDS011;3804;50.860;6.208;2023-06-22T05:12:31;12.33;;;8.70;;
7525;SDS011;3804;50.860;6.208;2023-06-22T05:14:58;11.93;;;9.30;;
7525;SDS011;3804;50.860;6.208;2023-06-22T05:17:25;9.47;;;8.20;;
7525;SDS011;3804;50.860;6.208;2023-06-22T05:19:52;9.70;;;8.43;;
7525;SDS011;3804;50.860;6.208;2023-06-22T05:22:19;10.73;;;8.77;;
7525;SDS011;3804;50.860;6.208;2023-06-22T05:24:46;11.97;;;9.23;;
7525;SDS011;3804;50.860;6.208;2023-06-22T05:27:13;10.93;;;9.37;;
7525;SDS011;3804;50.860;6.208;2023-06-22T05:29:40;11.40;;;8.67;;
7525;SDS011;3804;50.860;6.208;2023-06-22T05:32:07;9.70;;;8.67;;
7525;SDS011;3804;50.860;6.208;2023-06-22T05:34:33;13.37;;;9.40;;
7525;SDS011;3804;50.860;6.208;2023-06-22T05:37:00;13.10;;;9.40;;
7525;SDS011;3804;50.860;6.208;2023-06-22T05:39:27;12.70;;;10.03;;
7525;SDS011;3804;50.860;6.208;2023-06-22T05:41:54;13.27;;;9.87;;
7525;SDS011;3804;50.860;6.208;2023-06-22T05:44:21;13.23;;;9.60;;
7525;SDS011;3804;50.860;6.208;2023-06-22T05:46:48;11.50;;;9.93;;
7525;SDS011;3804;50.860;6.208;2023-06-22T05:49:15;11.17;;;9.80;;
7525;SDS011;3804;50.860;6.208;2023-06-22T05:51:42;13.73;;;9.60;;
7525;SDS011;3804;50.860;6.208;2023-06-22T05:54:09;13.93;;;11.00;;
7525;SDS011;3804;50.860;6.208;2023-06-22T05:56:36;14.37;;;11.07;;
7525;SDS011;3804;50.860;6.208;2023-06-22T05:59:04;13.57;;;10.87;;
7525;SDS011;3804;50.860;6.208;2023-06-22T06:01:30;14.83;;;10.73;;
7525;SDS011;3804;50.860;6.208;2023-06-22T06:04:05;11.97;;;9.53;;
7525;SDS011;3804;50.860;6.208;2023-06-22T06:06:35;12.60;;;10.10;;
7525;SDS011;3804;50.860;6.208;2023-06-22T06:09:04;12.23;;;10.37;;
7525;SDS011;3804;50.860;6.208;2023-06-22T06:11:31;11.90;;;10.60;;
7525;SDS011;3804;50.860;6.208;2023-06-22T06:13:58;14.17;;;10.57;;
7525;SDS011;3804;50.860;6.208;2023-06-22T06:16:24;13.87;;;10.50;;
7525;SDS011;3804;50.860;6.208;2023-06-22T06:18:51;12.17;;;10.80;;
7525;SDS011;3804;50.860;6.208;2023-06-22T06:21:20;13.93;;;11.20;;
7525;SDS011;3804;50.860;6.208;2023-06-22T06:23:46;12.73;;;10.33;;
7525;SDS011;3804;50.860;6.208;2023-06-22T06:26:13;16.07;;;10.97;;
7525;SDS011;3804;50.860;6.208;2023-06-22T06:28:43;11.10;;;9.87;;
7525;SDS011;3804;50.860;6.208;2023-06-22T06:31:10;13.47;;;10.23;;
7525;SDS011;3804;50.860;6.208;2023-06-22T06:33:39;12.23;;;9.77;;
7525;SDS011;3804;50.860;6.208;2023-06-22T06:36:05;12.00;;;9.60;;
7525;SDS011;3804;50.860;6.208;2023-06-22T06:38:35;12.80;;;9.77;;
7525;SDS011;3804;50.860;6.208;2023-06-22T06:41:01;15.23;;;10.13;;
7525;SDS011;3804;50.860;6.208;2023-06-22T06:43:28;12.03;;;9.47;;
7525;SDS011;3804;50.860;6.208;2023-06-22T06:45:55;12.80;;;10.17;;
7525;SDS011;3804;50.860;6.208;2023-06-22T06:48:22;15.43;;;10.07;;
7525;SDS011;3804;50.860;6.208;2023-06-22T06:50:49;10.70;;;9.53;;
7525;SDS011;3804;50.860;6.208;2023-06-22T06:53:16;12.00;;;10.00;;
7525;SDS011;3804;50.860;6.208;2023-06-22T06:55:43;12.10;;;9.63;;
7525;SDS011;3804;50.860;6.208;2023-06-22T06:58:12;14.90;;;9.87;;
7525;SDS011;3804;50.860;6.208;2023-06-22T07:00:39;13.63;;;9.77;;
7525;SDS011;3804;50.860;6.208;2023-06-22T07:03:06;12.77;;;9.40;;
7525;SDS011;3804;50.860;6.208;2023-06-22T07:05:33;11.80;;;9.53;;
7525;SDS011;3804;50.860;6.208;2023-06-22T07:08:00;11.40;;;9.03;;
7525;SDS011;3804;50.860;6.208;2023-06-22T07:10:28;11.77;;;9.67;;
7525;SDS011;3804;50.860;6.208;2023-06-22T07:12:55;10.93;;;8.37;;
7525;SDS011;3804;50.860;6.208;2023-06-22T07:15:23;12.47;;;8.60;;
7525;SDS011;3804;50.860;6.208;2023-06-22T07:17:51;13.20;;;8.70;;
7525;SDS011;3804;50.860;6.208;2023-06-22T07:20:17;13.17;;;8.47;;
7525;SDS011;3804;50.860;6.208;2023-06-22T07:22:45;9.10;;;8.20;;
7525;SDS011;3804;50.860;6.208;2023-06-22T07:25:13;12.70;;;8.63;;
7525;SDS011;3804;50.860;6.208;2023-06-22T07:27:44;12.33;;;8.23;;
7525;SDS011;3804;50.860;6.208;2023-06-22T07:30:12;11.27;;;8.87;;
7525;SDS011;3804;50.860;6.208;2023-06-22T07:32:40;11.80;;;9.27;;
7525;SDS011;3804;50.860;6.208;2023-06-22T07:35:08;11.57;;;8.23;;
7525;SDS011;3804;50.860;6.208;2023-06-22T07:37:34;12.47;;;9.00;;
7525;SDS011;3804;50.860;6.208;2023-06-22T07:40:01;9.80;;;8.40;;
7525;SDS011;3804;50.860;6.208;2023-06-22T07:42:32;14.17;;;9.67;;
7525;SDS011;3804;50.860;6.208;2023-06-22T07:44:59;10.13;;;8.37;;
7525;SDS011;3804;50.860;6.208;2023-06-22T07:47:26;10.20;;;9.10;;
7525;SDS011;3804;50.860;6.208;2023-06-22T07:49:55;15.37;;;8.20;;
7525;SDS011;3804;50.860;6.208;2023-06-22T07:52:24;15.60;;;9.33;;
7525;SDS011;3804;50.860;6.208;2023-06-22T07:54:52;13.47;;;8.17;;
7525;SDS011;3804;50.860;6.208;2023-06-22T07:57:19;12.17;;;8.93;;
7525;SDS011;3804;50.860;6.208;2023-06-22T07:59:46;11.30;;;8.17;;
7525;SDS011;3804;50.860;6.208;2023-06-22T08:02:13;12.47;;;9.40;;
7525;SDS011;3804;50.860;6.208;2023-06-22T08:04:40;12.27;;;9.83;;
7525;SDS011;3804;50.860;6.208;2023-06-22T08:07:07;10.60;;;9.27;;
7525;SDS011;3804;50.860;6.208;2023-06-22T08:09:34;12.27;;;9.13;;
7525;SDS011;3804;50.860;6.208;2023-06-22T08:12:02;10.17;;;9.17;;
7525;SDS011;3804;50.860;6.208;2023-06-22T08:14:29;10.97;;;9.47;;
7525;SDS011;3804;50.860;6.208;2023-06-22T08:16:56;10.37;;;9.27;;
7525;SDS011;3804;50.860;6.208;2023-06-22T08:19:22;13.53;;;8.40;;
7525;SDS011;3804;50.860;6.208;2023-06-22T08:21:49;14.87;;;8.07;;
7525;SDS011;3804;50.860;6.208;2023-06-22T08:24:16;9.43;;;8.30;;
7525;SDS011;3804;50.860;6.208;2023-06-22T08:26:43;14.23;;;9.17;;
7525;SDS011;3804;50.860;6.208;2023-06-22T08:29:09;13.97;;;9.30;;
7525;SDS011;3804;50.860;6.208;2023-06-22T08:31:37;13.10;;;8.80;;
7525;SDS011;3804;50.860;6.208;2023-06-22T08:34:04;10.07;;;8.93;;
7525;SDS011;3804;50.860;6.208;2023-06-22T08:36:31;10.95;;;7.93;;
7525;SDS011;3804;50.860;6.208;2023-06-22T08:38:59;12.32;;;9.25;;
7525;SDS011;3804;50.860;6.208;2023-06-22T08:41:30;11.07;;;7.97;;
7525;SDS011;3804;50.860;6.208;2023-06-22T08:43:57;12.63;;;9.43;;
7525;SDS011;3804;50.860;6.208;2023-06-22T08:46:24;14.18;;;9.88;;
7525;SDS011;3804;50.860;6.208;2023-06-22T08:48:57;9.98;;;8.05;;
7525;SDS011;3804;50.860;6.208;2023-06-22T08:51:26;9.63;;;8.63;;
7525;SDS011;3804;50.860;6.208;2023-06-22T08:53:53;12.32;;;9.77;;
7525;SDS011;3804;50.860;6.208;2023-06-22T08:56:20;12.05;;;9.20;;
7525;SDS011;3804;50.860;6.208;2023-06-22T08:58:47;13.82;;;9.90;;
7525;SDS011;3804;50.860;6.208;2023-06-22T09:01:13;10.68;;;9.23;;
7525;SDS011;3804;50.860;6.208;2023-06-22T09:03:42;13.13;;;9.25;;
7525;SDS011;3804;50.860;6.208;2023-06-22T09:06:09;12.40;;;8.97;;
7525;SDS011;3804;50.860;6.208;2023-06-22T09:08:36;12.47;;;10.30;;
7525;SDS011;3804;50.860;6.208;2023-06-22T09:11:03;12.63;;;10.30;;
7525;SDS011;3804;50.860;6.208;2023-06-22T09:13:30;13.30;;;10.63;;
7525;SDS011;3804;50.860;6.208;2023-06-22T09:15:57;12.02;;;10.27;;
7525;SDS011;3804;50.860;6.208;2023-06-22T09:18:24;13.10;;;9.15;;
7525;SDS011;3804;50.860;6.208;2023-06-22T09:20:50;13.63;;;10.02;;
7525;SDS011;3804;50.860;6.208;2023-06-22T09:23:17;12.37;;;10.00;;
7525;SDS011;3804;50.860;6.208;2023-06-22T09:25:44;14.20;;;11.27;;
7525;SDS011;3804;50.860;6.208;2023-06-22T09:28:11;13.57;;;10.80;;
7525;SDS011;3804;50.860;6.208;2023-06-22T09:30:38;14.03;;;10.33;;
7525;SDS011;3804;50.860;6.208;2023-06-22T09:33:04;13.33;;;10.23;;
7525;SDS011;3804;50.860;6.208;2023-06-22T09:35:31;13.90;;;9.70;;
7525;SDS011;3804;50.860;6.208;2023-06-22T09:37:58;12.67;;;10.90;;
7525;SDS011;3804;50.860;6.208;2023-06-22T09:40:25;12.57;;;10.83;;
7525;SDS011;3804;50.860;6.208;2023-06-22T09:42:52;13.70;;;11.80;;
7525;SDS011;3804;50.860;6.208;2023-06-22T09:45:19;13.47;;;11.37;;
7525;SDS011;3804;50.860;6.208;2023-06-22T09:47:46;11.67;;;10.47;;
7525;SDS011;3804;50.860;6.208;2023-06-22T09:50:12;12.20;;;10.80;;
7525;SDS011;3804;50.860;6.208;2023-06-22T09:52:39;12.73;;;11.53;;
7525;SDS011;3804;50.860;6.208;2023-06-22T09:55:09;11.97;;;10.87;;
7525;SDS011;3804;50.860;6.208;2023-06-22T09:57:36;13.70;;;11.40;;
7525;SDS011;3804;50.860;6.208;2023-06-22T10:00:03;12.83;;;11.37;;
7525;SDS011;3804;50.860;6.208;2023-06-22T10:02:33;13.87;;;12.47;;
7525;SDS011;3804;50.860;6.208;2023-06-22T10:05:01;14.23;;;12.73;;
7525;SDS011;3804;50.860;6.208;2023-06-22T10:07:28;14.60;;;13.10;;
7525;SDS011;3804;50.860;6.208;2023-06-22T10:09:55;22.70;;;14.70;;
7525;SDS011;3804;50.860;6.208;2023-06-22T10:12:21;22.23;;;15.80;;
7525;SDS011;3804;50.860;6.208;2023-06-22T10:14:49;23.13;;;18.00;;
7525;SDS011;3804;50.860;6.208;2023-06-22T10:17:16;35.17;;;21.23;;
7525;SDS011;3804;50.860;6.208;2023-06-22T10:19:42;22.10;;;19.07;;
7525;SDS011;3804;50.860;6.208;2023-06-22T10:22:09;26.80;;;22.43;;
7525;SDS011;3804;50.860;6.208;2023-06-22T10:24:36;32.67;;;24.40;;
7525;SDS011;3804;50.860;6.208;2023-06-22T10:27:05;32.70;;;25.70;;
7525;SDS011;3804;50.860;6.208;2023-06-22T10:29:31;32.83;;;25.03;;
7525;SDS011;3804;50.860;6.208;2023-06-22T10:31:59;39.47;;;26.97;;
7525;SDS011;3804;50.860;6.208;2023-06-22T10:34:25;33.63;;;27.70;;
7525;SDS011;3804;50.860;6.208;2023-06-22T10:36:52;34.30;;;28.17;;
7525;SDS011;3804;50.860;6.208;2023-06-22T10:39:20;31.50;;;26.87;;
7525;SDS011;3804;50.860;6.208;2023-06-22T10:41:47;28.83;;;25.37;;
7525;SDS011;3804;50.860;6.208;2023-06-22T10:44:14;29.57;;;25.67;;
7525;SDS011;3804;50.860;6.208;2023-06-22T10:46:41;28.90;;;25.73;;
7525;SDS011;3804;50.860;6.208;2023-06-22T10:49:08;30.63;;;27.10;;
7525;SDS011;3804;50.860;6.208;2023-06-22T10:51:35;33.97;;;28.43;;
7525;SDS011;3804;50.860;6.208;2023-06-22T10:54:02;36.03;;;31.47;;
7525;SDS011;3804;50.860;6.208;2023-06-22T10:56:30;35.73;;;31.43;;
7525;SDS011;3804;50.860;6.208;2023-06-22T10:58:59;35.70;;;31.83;;
7525;SDS011;3804;50.860;6.208;2023-06-22T11:01:26;38.30;;;33.13;;
7525;SDS011;3804;50.860;6.208;2023-06-22T11:04:02;34.73;;;31.03;;
7525;SDS011;3804;50.860;6.208;2023-06-22T11:06:30;38.40;;;32.20;;
7525;SDS011;3804;50.860;6.208;2023-06-22T11:08:57;34.80;;;31.10;;
7525;SDS011;3804;50.860;6.208;2023-06-22T11:11:45;35.33;;;31.47;;
7525;SDS011;3804;50.860;6.208;2023-06-22T11:14:11;31.33;;;27.93;;
7525;SDS011;3804;50.860;6.208;2023-06-22T11:16:38;31.33;;;28.13;;
7525;SDS011;3804;50.860;6.208;2023-06-22T11:19:05;29.47;;;26.37;;
7525;SDS011;3804;50.860;6.208;2023-06-22T11:21:32;29.00;;;25.93;;
7525;SDS011;3804;50.860;6.208;2023-06-22T11:23:59;25.80;;;23.07;;
7525;SDS011;3804;50.860;6.208;2023-06-22T11:26:26;22.40;;;20.03;;
7525;SDS011;3804;50.860;6.208;2023-06-22T11:28:56;29.00;;;21.67;;
7525;SDS011;3804;50.860;6.208;2023-06-22T11:31:23;19.60;;;15.87;;
7525;SDS011;3804;50.860;6.208;2023-06-22T11:33:52;17.37;;;15.57;;
7525;SDS011;3804;50.860;6.208;2023-06-22T11:36:19;18.03;;;16.23;;
7525;SDS011;3804;50.860;6.208;2023-06-22T11:38:46;17.27;;;15.37;;
7525;SDS011;3804;50.860;6.208;2023-06-22T11:41:13;17.83;;;16.07;;
7525;SDS011;3804;50.860;6.208;2023-06-22T11:43:39;15.50;;;13.97;;
7525;SDS011;3804;50.860;6.208;2023-06-22T11:46:06;16.30;;;14.60;;
7525;SDS011;3804;50.860;6.208;2023-06-22T11:48:33;15.07;;;13.57;;
7525;SDS011;3804;50.860;6.208;2023-06-22T11:51:00;17.33;;;15.47;;
7525;SDS011;3804;50.860;6.208;2023-06-22T11:53:27;16.30;;;14.60;;
7525;SDS011;3804;50.860;6.208;2023-06-22T11:55:54;18.37;;;15.10;;
7525;SDS011;3804;50.860;6.208;2023-06-22T11:58:22;18.07;;;16.13;;
7525;SDS011;3804;50.860;6.208;2023-06-22T12:00:49;17.10;;;15.37;;
7525;SDS011;3804;50.860;6.208;2023-06-22T12:03:18;17.00;;;15.27;;
7525;SDS011;3804;50.860;6.208;2023-06-22T12:05:45;15.83;;;14.20;;
7525;SDS011;3804;50.860;6.208;2023-06-22T12:08:13;15.50;;;14.00;;
7525;SDS011;3804;50.860;6.208;2023-06-22T12:10:40;17.37;;;15.03;;
7525;SDS011;3804;50.860;6.208;2023-06-22T12:13:07;15.50;;;13.90;;
7525;SDS011;3804;50.860;6.208;2023-06-22T12:15:34;16.60;;;14.93;;
7525;SDS011;3804;50.860;6.208;2023-06-22T12:18:01;14.90;;;13.27;;
7525;SDS011;3804;50.860;6.208;2023-06-22T12:20:29;16.00;;;13.50;;
7525;SDS011;3804;50.860;6.208;2023-06-22T12:22:57;15.23;;;13.63;;
7525;SDS011;3804;50.860;6.208;2023-06-22T12:25:24;14.80;;;13.13;;
7525;SDS011;3804;50.860;6.208;2023-06-22T12:27:51;14.03;;;12.57;;
7525;SDS011;3804;50.860;6.208;2023-06-22T12:30:18;14.00;;;12.60;;
7525;SDS011;3804;50.860;6.208;2023-06-22T12:32:45;14.70;;;13.13;;
7525;SDS011;3804;50.860;6.208;2023-06-22T12:35:12;11.90;;;10.70;;
7525;SDS011;3804;50.860;6.208;2023-06-22T12:37:41;14.57;;;11.57;;
7525;SDS011;3804;50.860;6.208;2023-06-22T12:40:09;14.10;;;12.03;;
7525;SDS011;3804;50.860;6.208;2023-06-22T12:42:36;13.77;;;12.33;;
7525;SDS011;3804;50.860;6.208;2023-06-22T12:45:04;15.57;;;12.93;;
7525;SDS011;3804;50.860;6.208;2023-06-22T12:47:31;14.00;;;12.60;;
7525;SDS011;3804;50.860;6.208;2023-06-22T12:49:57;13.37;;;11.97;;
7525;SDS011;3804;50.860;6.208;2023-06-22T12:52:24;13.03;;;11.30;;
7525;SDS011;3804;50.860;6.208;2023-06-22T12:54:51;13.17;;;11.73;;
7525;SDS011;3804;50.860;6.208;2023-06-22T12:57:21;13.97;;;12.43;;
7525;SDS011;3804;50.860;6.208;2023-06-22T12:59:48;13.77;;;12.27;;
7525;SDS011;3804;50.860;6.208;2023-06-22T13:02:15;13.83;;;12.23;;
7525;SDS011;3804;50.860;6.208;2023-06-22T13:04:42;14.43;;;11.40;;
7525;SDS011;3804;50.860;6.208;2023-06-22T13:07:09;15.97;;;14.30;;
7525;SDS011;3804;50.860;6.208;2023-06-22T13:09:48;15.30;;;13.37;;
7525;SDS011;3804;50.860;6.208;2023-06-22T13:12:20;16.17;;;12.83;;
7525;SDS011;3804;50.860;6.208;2023-06-22T13:14:47;16.00;;;14.40;;
7525;SDS011;3804;50.860;6.208;2023-06-22T13:17:14;17.23;;;15.03;;
7525;SDS011;3804;50.860;6.208;2023-06-22T13:19:41;16.53;;;14.93;;
7525;SDS011;3804;50.860;6.208;2023-06-22T13:24:54;19.77;;;16.97;;
7525;SDS011;3804;50.860;6.208;2023-06-22T13:27:22;22.00;;;19.77;;
7525;SDS011;3804;50.860;6.208;2023-06-22T13:29:49;23.23;;;20.87;;
7525;SDS011;3804;50.860;6.208;2023-06-22T13:32:16;20.57;;;18.30;;
7525;SDS011;3804;50.860;6.208;2023-06-22T13:34:43;22.27;;;18.87;;
7525;SDS011;3804;50.860;6.208;2023-06-22T13:37:10;20.63;;;18.50;;
7525;SDS011;3804;50.860;6.208;2023-06-22T13:39:37;22.37;;;20.17;;
7525;SDS011;3804;50.860;6.208;2023-06-22T13:42:04;21.00;;;18.80;;
7525;SDS011;3804;50.860;6.208;2023-06-22T13:44:31;21.47;;;18.80;;
7525;SDS011;3804;50.860;6.208;2023-06-22T13:46:58;21.17;;;18.87;;
7525;SDS011;3804;50.860;6.208;2023-06-22T13:49:25;21.10;;;18.73;;
7525;SDS011;3804;50.860;6.208;2023-06-22T13:51:52;22.43;;;19.40;;
7525;SDS011;3804;50.860;6.208;2023-06-22T13:54:19;23.83;;;18.50;;
7525;SDS011;3804;50.860;6.208;2023-06-22T13:56:49;22.73;;;17.53;;
7525;SDS011;3804;50.860;6.208;2023-06-22T13:59:16;23.60;;;21.13;;
7525;SDS011;3804;50.860;6.208;2023-06-22T14:01:43;23.60;;;21.03;;
7525;SDS011;3804;50.860;6.208;2023-06-22T14:04:10;23.23;;;20.93;;
7525;SDS011;3804;50.860;6.208;2023-06-22T14:06:37;23.13;;;20.67;;
7525;SDS011;3804;50.860;6.208;2023-06-22T14:09:04;24.17;;;19.33;;
7525;SDS011;3804;50.860;6.208;2023-06-22T14:11:31;23.33;;;20.70;;
7525;SDS011;3804;50.860;6.208;2023-06-22T14:13:58;26.13;;;23.43;;
7525;SDS011;3804;50.860;6.208;2023-06-22T14:16:25;28.83;;;23.30;;
7525;SDS011;3804;50.860;6.208;2023-06-22T14:18:52;25.53;;;22.83;;
7525;SDS011;3804;50.860;6.208;2023-06-22T14:21:23;27.17;;;23.50;;
7525;SDS011;3804;50.860;6.208;2023-06-22T14:23:50;24.77;;;22.17;;
7525;SDS011;3804;50.860;6.208;2023-06-22T14:26:16;28.67;;;21.60;;
7525;SDS011;3804;50.860;6.208;2023-06-22T14:28:46;24.80;;;21.93;;
7525;SDS011;3804;50.860;6.208;2023-06-22T14:31:15;25.30;;;22.63;;
7525;SDS011;3804;50.860;6.208;2023-06-22T14:33:46;30.33;;;23.33;;
7525;SDS011;3804;50.860;6.208;2023-06-22T14:36:13;30.13;;;25.97;;
7525;SDS011;3804;50.860;6.208;2023-06-22T14:38:40;26.10;;;23.30;;
7525;SDS011;3804;50.860;6.208;2023-06-22T14:41:07;32.80;;;22.07;;
7525;SDS011;3804;50.860;6.208;2023-06-22T14:43:43;27.10;;;22.33;;
7525;SDS011;3804;50.860;6.208;2023-06-22T14:46:10;30.53;;;27.13;;
7525;SDS011;3804;50.860;6.208;2023-06-22T14:48:37;28.73;;;24.30;;
7525;SDS011;3804;50.860;6.208;2023-06-22T14:51:03;27.13;;;23.73;;
7525;SDS011;3804;50.860;6.208;2023-06-22T14:53:31;34.93;;;28.47;;
7525;SDS011;3804;50.860;6.208;2023-06-22T14:55:57;34.00;;;27.20;;
7525;SDS011;3804;50.860;6.208;2023-06-22T14:58:26;39.97;;;33.60;;
7525;SDS011;3804;50.860;6.208;2023-06-22T15:00:53;43.67;;;32.77;;
7525;SDS011;3804;50.860;6.208;2023-06-22T15:03:20;45.53;;;36.67;;
7525;SDS011;3804;50.860;6.208;2023-06-22T15:05:52;49.83;;;38.00;;
7525;SDS011;3804;50.860;6.208;2023-06-22T15:08:18;49.17;;;38.87;;
7525;SDS011;3804;50.860;6.208;2023-06-22T15:10:46;51.50;;;39.83;;
7525;SDS011;3804;50.860;6.208;2023-06-22T15:13:12;52.87;;;38.37;;